createdAt,value
2017-10-21T00:02:02.944Z,100978.52
2017-10-21T00:04:30.813Z,100973.12
2017-10-21T00:06:58.402Z,100975.31
2017-10-21T00:09:26.282Z,100979.91
2017-10-21T00:11:53.901Z,100976.05
2017-10-21T00:14:21.493Z,100974.80
2017-10-21T00:16:49.114Z,100976.99
2017-10-21T00:19:16.710Z,100982.11
2017-10-21T00:21:44.296Z,100982.09
2017-10-21T00:24:11.916Z,100983.20
2017-10-21T00:26:39.821Z,100987.47
2017-10-21T00:29:07.457Z,100981.27
2017-10-21T00:31:35.059Z,100985.42
2017-10-21T00:34:02.654Z,100979.95
2017-10-21T00:36:30.271Z,100978.61
2017-10-21T00:38:57.845Z,100983.16
2017-10-21T00:41:25.495Z,100974.39
2017-10-21T00:43:53.085Z,100982.84
2017-10-21T00:46:20.696Z,100986.37
2017-10-21T00:48:48.308Z,100982.75
2017-10-21T00:51:16.144Z,100988.45
2017-10-21T00:53:43.769Z,100989.63
2017-10-21T00:56:11.366Z,100994.65
2017-10-21T00:58:38.968Z,100982.86
2017-10-21T01:01:06.633Z,100983.19
2017-10-21T01:03:34.225Z,100972.57
2017-10-21T01:06:01.853Z,100977.18
2017-10-21T01:08:29.441Z,100973.97
2017-10-21T01:10:57.025Z,100975.73
2017-10-21T01:13:24.643Z,100973.80
2017-10-21T01:15:52.573Z,100970.81
2017-10-21T01:18:20.200Z,100971.97
2017-10-21T01:20:47.790Z,100971.91
2017-10-21T01:23:15.377Z,100963.09
2017-10-21T01:25:42.992Z,100962.36
2017-10-21T01:28:10.593Z,100960.59
2017-10-21T01:30:38.223Z,100963.07
2017-10-21T01:33:05.813Z,100967.47
2017-10-21T01:35:33.397Z,100969.20
2017-10-21T01:38:01.028Z,100973.05
2017-10-21T01:40:28.893Z,100968.95
2017-10-21T01:42:56.517Z,100978.02
2017-10-21T01:45:24.110Z,100972.05
2017-10-21T01:47:51.985Z,100971.33
2017-10-21T01:50:19.599Z,100971.30
2017-10-21T01:52:49.456Z,100970.81
2017-10-21T01:55:17.077Z,100968.28
2017-10-21T01:57:44.664Z,100960.85
2017-10-21T02:00:12.272Z,100960.02
2017-10-21T02:02:39.886Z,100963.08
2017-10-21T02:05:07.486Z,100960.19
2017-10-21T02:07:35.113Z,100959.70
2017-10-21T02:10:03.006Z,100960.70
2017-10-21T02:12:30.597Z,100961.69
2017-10-21T02:14:58.226Z,100968.13
2017-10-21T02:17:25.853Z,100966.41
2017-10-21T02:19:53.473Z,100969.31
2017-10-21T02:22:21.066Z,100963.72
2017-10-21T02:24:48.677Z,100970.72
2017-10-21T02:27:16.293Z,100968.34
2017-10-21T02:29:44.202Z,100968.16
2017-10-21T02:32:11.836Z,100974.10
2017-10-21T02:34:39.428Z,100973.57
2017-10-21T02:37:07.010Z,100972.50
2017-10-21T02:39:34.625Z,100971.39
2017-10-21T02:42:02.229Z,100970.09
2017-10-21T02:44:29.877Z,100971.99
2017-10-21T02:46:57.466Z,100981.52
2017-10-21T02:49:25.043Z,100981.00
2017-10-21T02:51:52.660Z,100973.77
2017-10-21T02:54:20.245Z,100974.81
2017-10-21T02:56:48.089Z,100977.25
2017-10-21T02:59:15.710Z,100974.16
2017-10-21T03:01:43.315Z,100975.85
2017-10-21T03:04:10.929Z,100971.16
2017-10-21T03:06:38.548Z,100969.05
2017-10-21T03:09:06.124Z,100970.47
2017-10-21T03:11:34.072Z,100969.13
2017-10-21T03:14:01.662Z,100969.80
2017-10-21T03:16:29.248Z,100978.56
2017-10-21T03:18:56.873Z,100987.09
2017-10-21T03:21:24.721Z,100986.67
2017-10-21T03:23:52.341Z,100985.58
2017-10-21T03:26:20.250Z,100987.75
2017-10-21T03:28:48.216Z,100980.55
2017-10-21T03:31:15.836Z,100983.98
2017-10-21T03:33:43.422Z,100987.08
2017-10-21T03:36:11.048Z,100991.53
2017-10-21T03:38:38.654Z,100994.28
2017-10-21T03:41:06.261Z,100988.94
2017-10-21T03:43:33.875Z,100990.01
2017-10-21T03:46:01.761Z,100989.88
2017-10-21T03:48:29.381Z,100991.57
2017-10-21T03:50:56.973Z,100991.39
2017-10-21T03:53:24.561Z,100996.26
2017-10-21T03:55:52.179Z,100991.56
2017-10-21T03:58:20.051Z,100995.80
2017-10-21T04:00:47.679Z,100994.75
2017-10-21T04:03:15.605Z,100993.66
2017-10-21T04:05:43.213Z,100987.99
2017-10-21T04:08:10.836Z,100990.92
2017-10-21T04:10:38.422Z,100992.47
2017-10-21T04:13:06.048Z,100985.99
2017-10-21T04:15:33.634Z,100981.59
2017-10-21T04:18:01.220Z,100984.03
2017-10-21T04:20:28.870Z,100988.02
2017-10-21T04:22:56.458Z,100982.03
2017-10-21T04:25:24.089Z,100985.63
2017-10-21T04:27:51.686Z,100986.18
2017-10-21T04:30:19.311Z,100981.78
2017-10-21T04:32:46.920Z,100979.17
2017-10-21T04:35:14.515Z,100978.91
2017-10-21T04:37:42.165Z,100967.38
2017-10-21T04:40:09.747Z,100975.75
2017-10-21T04:42:37.600Z,100979.82
2017-10-21T04:45:05.205Z,100978.51
2017-10-21T04:47:32.806Z,100976.98
2017-10-21T04:50:00.428Z,100975.58
2017-10-21T04:52:28.023Z,100976.20
2017-10-21T04:54:55.618Z,100976.00
2017-10-21T04:57:23.236Z,100977.75
2017-10-21T04:59:50.833Z,100982.64
2017-10-21T05:02:18.463Z,100984.91
2017-10-21T05:04:46.076Z,100981.73
2017-10-21T05:07:13.924Z,100979.54
2017-10-21T05:09:41.536Z,100984.58
2017-10-21T05:12:09.137Z,100990.67
2017-10-21T05:14:36.772Z,100993.27
2017-10-21T05:17:04.684Z,100991.50
2017-10-21T05:19:32.277Z,101003.09
2017-10-21T05:22:00.208Z,101003.69
2017-10-21T05:24:27.798Z,101005.20
2017-10-21T05:26:55.421Z,101010.11
2017-10-21T05:29:23.020Z,101010.24
2017-10-21T05:31:50.605Z,101011.56
2017-10-21T05:34:18.233Z,101013.73
2017-10-21T05:36:45.820Z,101005.59
2017-10-21T05:39:13.438Z,101003.05
2017-10-21T05:41:41.309Z,101009.36
2017-10-21T05:44:08.901Z,101010.52
2017-10-21T05:46:36.846Z,101011.97
2017-10-21T05:49:04.432Z,101010.13
2017-10-21T05:51:32.372Z,101008.17
2017-10-21T05:53:59.961Z,101023.13
2017-10-21T05:56:28.726Z,101022.47
2017-10-21T05:58:56.331Z,101021.33
2017-10-21T06:01:23.924Z,101027.64
2017-10-21T06:03:51.557Z,101025.91
2017-10-21T06:06:19.149Z,101016.27
2017-10-21T06:08:46.739Z,101021.42
2017-10-21T06:11:14.376Z,101009.21
2017-10-21T06:13:41.978Z,101011.56
2017-10-21T06:16:09.639Z,101022.45
2017-10-21T06:18:37.249Z,101014.62
2017-10-21T06:21:04.951Z,101018.05
2017-10-21T06:23:32.573Z,101020.05
2017-10-21T06:26:00.176Z,101021.11
2017-10-21T06:28:27.825Z,101022.30
2017-10-21T06:30:55.413Z,101025.98
2017-10-21T06:33:22.989Z,101029.83
2017-10-21T06:35:50.652Z,101033.87
2017-10-21T06:38:18.264Z,101033.61
2017-10-21T06:40:45.896Z,101042.91
2017-10-21T06:43:13.720Z,101041.97
2017-10-21T06:45:41.316Z,101040.63
2017-10-21T06:48:09.341Z,101035.95
2017-10-21T06:50:36.936Z,101042.32
2017-10-21T06:53:04.574Z,101042.98
2017-10-21T06:55:32.157Z,101043.67
2017-10-21T06:57:59.763Z,101044.50
2017-10-21T07:00:27.380Z,101050.02
2017-10-21T07:02:54.969Z,101053.19
2017-10-21T07:05:22.582Z,101050.95
2017-10-21T07:07:50.169Z,101056.11
2017-10-21T07:10:17.806Z,101059.95
2017-10-21T07:12:45.398Z,101052.86
2017-10-21T07:15:13.002Z,101055.46
2017-10-21T07:17:40.890Z,101060.42
2017-10-21T07:20:08.475Z,101060.25
2017-10-21T07:22:36.102Z,101056.47
2017-10-21T07:25:03.704Z,101063.25
2017-10-21T07:27:31.296Z,101065.33
2017-10-21T07:29:58.906Z,101056.26
2017-10-21T07:32:26.499Z,101059.23
2017-10-21T07:34:54.125Z,101066.47
2017-10-21T07:37:21.747Z,101065.70
2017-10-21T07:39:49.349Z,101073.91
2017-10-21T07:42:17.212Z,101069.80
2017-10-21T07:44:44.801Z,101070.45
2017-10-21T07:47:12.423Z,101070.05
2017-10-21T07:49:40.023Z,101076.88
2017-10-21T07:52:07.604Z,101071.20
2017-10-21T07:54:35.532Z,101070.87
2017-10-21T07:57:03.141Z,101067.95
2017-10-21T07:59:30.779Z,101069.45
2017-10-21T08:01:58.617Z,101073.45
2017-10-21T08:04:26.217Z,101072.55
2017-10-21T08:06:53.845Z,101077.42
2017-10-21T08:09:21.439Z,101080.78
2017-10-21T08:11:49.074Z,101079.14
2017-10-21T08:14:16.680Z,101079.97
2017-10-21T08:16:44.275Z,101079.44
2017-10-21T08:19:12.159Z,101072.20
2017-10-21T08:21:39.736Z,101076.77
2017-10-21T08:24:07.357Z,101077.80
2017-10-21T08:26:34.977Z,101082.13
2017-10-21T08:29:02.613Z,101082.36
2017-10-21T08:31:30.971Z,101080.90
2017-10-21T08:33:58.566Z,101076.75
2017-10-21T08:36:26.196Z,101091.23
2017-10-21T08:38:53.784Z,101085.84
2017-10-21T08:41:21.381Z,101083.52
2017-10-21T08:43:48.990Z,101090.06
2017-10-21T08:46:16.580Z,101086.67
2017-10-21T08:48:44.194Z,101085.27
2017-10-21T08:51:11.798Z,101084.02
2017-10-21T08:53:39.385Z,101086.20
2017-10-21T08:56:07.841Z,101089.55
2017-10-21T08:58:35.426Z,101090.48
2017-10-21T09:01:03.062Z,101082.26
2017-10-21T09:03:30.667Z,101080.47
2017-10-21T09:05:58.264Z,101081.30
2017-10-21T09:08:25.874Z,101093.45
2017-10-21T09:10:53.481Z,101090.56
2017-10-21T09:13:21.105Z,101088.87
2017-10-21T09:15:48.734Z,101088.30
2017-10-21T09:18:16.320Z,101082.44
2017-10-21T09:20:43.946Z,101084.72
2017-10-21T09:23:11.565Z,101093.05
2017-10-21T09:25:39.197Z,101094.07
2017-10-21T09:28:06.791Z,101093.96
2017-10-21T09:30:34.403Z,101093.99
2017-10-21T09:33:02.051Z,101093.45
2017-10-21T09:35:29.657Z,101090.27
2017-10-21T09:37:57.258Z,101095.98
2017-10-21T09:40:25.021Z,101093.39
2017-10-21T09:42:52.917Z,101092.59
2017-10-21T09:45:20.506Z,101088.93
2017-10-21T09:47:48.413Z,101088.88
2017-10-21T09:50:16.760Z,101095.63
2017-10-21T09:52:44.378Z,101091.97
2017-10-21T09:55:12.047Z,101095.92
2017-10-21T09:57:39.646Z,101096.66
2017-10-21T10:00:07.266Z,101095.14
2017-10-21T10:02:34.889Z,101093.73
2017-10-21T10:05:02.488Z,101085.11
2017-10-21T10:07:30.133Z,101090.98
2017-10-21T10:09:57.734Z,101092.58
2017-10-21T10:12:25.330Z,101096.08
2017-10-21T10:14:52.964Z,101095.74
2017-10-21T10:17:20.566Z,101088.78
2017-10-21T10:19:48.210Z,101088.37
2017-10-21T10:22:16.133Z,101088.61
2017-10-21T10:24:43.771Z,101086.97
2017-10-21T10:27:11.420Z,101076.95
2017-10-21T10:29:39.014Z,101082.47
2017-10-21T10:32:06.657Z,101081.45
2017-10-21T10:34:34.256Z,101072.73
2017-10-21T10:37:01.861Z,101072.75
2017-10-21T10:39:29.487Z,101067.04
2017-10-21T10:41:57.078Z,101065.38
2017-10-21T10:44:25.062Z,101063.63
2017-10-21T10:46:52.660Z,101064.39
2017-10-21T10:49:20.252Z,101048.88
2017-10-21T10:51:47.861Z,101055.45
2017-10-21T10:54:15.713Z,101059.72
2017-10-21T10:56:43.355Z,101049.33
2017-10-21T10:59:10.945Z,101049.68
2017-10-21T11:01:38.541Z,101041.58
2017-10-21T11:04:06.175Z,101045.91
2017-10-21T11:06:33.772Z,101045.23
2017-10-21T11:09:01.407Z,101047.23
2017-10-21T11:11:29.394Z,101037.31
2017-10-21T11:13:57.019Z,101032.67
2017-10-21T11:16:24.647Z,101036.41
2017-10-21T11:18:52.590Z,101036.32
2017-10-21T11:21:20.217Z,101029.95
2017-10-21T11:23:47.818Z,101025.32
2017-10-21T11:26:15.788Z,101028.84
2017-10-21T11:28:43.401Z,101021.45
2017-10-21T11:31:11.317Z,101027.70
2017-10-21T11:33:38.963Z,101030.17
2017-10-21T11:36:06.637Z,101026.22
2017-10-21T11:38:34.264Z,101021.36
2017-10-21T11:41:01.870Z,101019.72
2017-10-21T11:43:29.469Z,101014.83
2017-10-21T11:45:57.089Z,101019.36
2017-10-21T11:48:24.684Z,101022.86
2017-10-21T11:50:52.283Z,101024.91
2017-10-21T11:53:19.894Z,101024.58
2017-10-21T11:55:47.479Z,101032.34
2017-10-21T11:58:15.419Z,101024.03
2017-10-21T12:00:43.270Z,101021.02
2017-10-21T12:03:10.849Z,101024.03
2017-10-21T12:05:38.464Z,101015.67
2017-10-21T12:08:06.068Z,101011.70
2017-10-21T12:10:33.702Z,101017.30
2017-10-21T12:13:01.302Z,101022.13
2017-10-21T12:15:28.894Z,101007.16
2017-10-21T12:17:56.520Z,101002.31
2017-10-21T12:20:24.114Z,101007.31
2017-10-21T12:22:51.769Z,101005.18
2017-10-21T12:25:19.362Z,101005.22
2017-10-21T12:27:46.956Z,101011.58
2017-10-21T12:30:14.580Z,101011.34
2017-10-21T12:32:42.160Z,101001.72
2017-10-21T12:35:10.039Z,101000.66
2017-10-21T12:37:37.661Z,100999.22
2017-10-21T12:40:05.290Z,101013.28
2017-10-21T12:42:32.897Z,101005.33
2017-10-21T12:45:00.501Z,100997.69
2017-10-21T12:47:28.129Z,101002.66
2017-10-21T12:49:55.736Z,101005.19
2017-10-21T12:52:23.582Z,101004.30
2017-10-21T12:54:51.206Z,100996.67
2017-10-21T12:57:18.805Z,101003.75
2017-10-21T12:59:46.421Z,101002.36
2017-10-21T13:02:14.014Z,100992.38
2017-10-21T13:04:41.894Z,100985.62
2017-10-21T13:07:09.506Z,100990.39
2017-10-21T13:09:37.426Z,100996.34
2017-10-21T13:12:05.055Z,100995.97
2017-10-21T13:14:32.676Z,100993.55
2017-10-21T13:17:00.514Z,100992.31
2017-10-21T13:19:28.136Z,100987.88
2017-10-21T13:21:55.733Z,100984.22
2017-10-21T13:24:23.413Z,100988.98
2017-10-21T13:26:51.001Z,100984.38
2017-10-21T13:29:18.736Z,100985.46
2017-10-21T13:31:46.354Z,100979.77
2017-10-21T13:34:13.945Z,100969.04
2017-10-21T13:36:41.582Z,100971.53
2017-10-21T13:39:09.177Z,100963.61
2017-10-21T13:41:36.764Z,100965.52
2017-10-21T13:44:04.372Z,100971.17
2017-10-21T13:46:31.973Z,100972.85
2017-10-21T13:48:59.671Z,100958.19
2017-10-21T13:51:27.283Z,100949.66
2017-10-21T13:53:54.872Z,100945.58
2017-10-21T13:56:22.489Z,100937.20
2017-10-21T13:58:50.077Z,100952.76
2017-10-21T14:01:17.697Z,100958.50
2017-10-21T14:03:45.341Z,100961.29
2017-10-21T14:06:12.937Z,100961.29
2017-10-21T14:08:40.556Z,100959.67
2017-10-21T14:11:08.177Z,100973.41
2017-10-21T14:13:36.257Z,100975.58
2017-10-21T14:16:03.845Z,100982.70
2017-10-21T14:18:31.428Z,100980.02
2017-10-21T14:20:59.049Z,100981.64
2017-10-21T14:23:26.648Z,100980.16
2017-10-21T14:25:54.569Z,100986.82
2017-10-21T14:28:22.157Z,100981.05
2017-10-21T14:30:49.753Z,100988.11
2017-10-21T14:33:17.424Z,100988.52
2017-10-21T14:35:45.246Z,100986.59
2017-10-21T14:38:12.871Z,100987.14
2017-10-21T14:40:40.469Z,100994.45
2017-10-21T14:43:08.102Z,100997.33
2017-10-21T14:45:35.982Z,101003.42
2017-10-21T14:48:03.577Z,101010.46
2017-10-21T14:50:31.241Z,101013.84
2017-10-21T14:52:59.168Z,101005.12
2017-10-21T14:55:26.757Z,101008.83
2017-10-21T14:57:54.369Z,101013.82
2017-10-21T15:00:21.980Z,101012.75
2017-10-21T15:02:50.035Z,101013.48
2017-10-21T15:05:17.898Z,101010.94
2017-10-21T15:07:45.502Z,101014.56
2017-10-21T15:10:13.125Z,101009.00
2017-10-21T15:12:40.741Z,101009.17
2017-10-21T15:15:08.383Z,101006.49
2017-10-21T15:17:35.979Z,101001.22
2017-10-21T15:20:03.891Z,101005.98
2017-10-21T15:22:31.643Z,101006.81
2017-10-21T15:24:59.253Z,101004.41
2017-10-21T15:27:27.174Z,101001.96
2017-10-21T15:29:54.756Z,100997.52
2017-10-21T15:32:22.588Z,101002.30
2017-10-21T15:34:50.292Z,100998.97
2017-10-21T15:37:17.903Z,100995.55
2017-10-21T15:39:45.559Z,100998.23
2017-10-21T15:42:13.190Z,100995.03
2017-10-21T15:44:40.859Z,100985.55
2017-10-21T15:47:08.544Z,100974.46
2017-10-21T15:49:36.130Z,100970.86
2017-10-21T15:52:03.752Z,100972.97
2017-10-21T15:54:31.344Z,100967.02
2017-10-21T15:56:58.937Z,100964.70
2017-10-21T15:59:26.584Z,100967.28
2017-10-21T16:01:54.173Z,100975.83
2017-10-21T16:04:21.802Z,100975.87
2017-10-21T16:06:49.681Z,100969.16
2017-10-21T16:09:17.350Z,100964.72
2017-10-21T16:11:44.978Z,100959.64
2017-10-21T16:14:12.816Z,100966.30
2017-10-21T16:16:40.481Z,100964.41
2017-10-21T16:19:08.071Z,100966.30
2017-10-21T16:21:35.664Z,100967.64
2017-10-21T16:24:03.280Z,100969.13
2017-10-21T16:26:31.190Z,100969.45
2017-10-21T16:28:58.802Z,100975.69
2017-10-21T16:31:26.421Z,100975.46
2017-10-21T16:33:54.046Z,100977.52
2017-10-21T16:36:21.674Z,100979.71
2017-10-21T16:38:49.258Z,100978.20
2017-10-21T16:41:16.853Z,100980.30
2017-10-21T16:43:44.481Z,100985.41
2017-10-21T16:46:12.078Z,100984.89
2017-10-21T16:48:39.728Z,100980.59
2017-10-21T16:51:07.412Z,100973.36
2017-10-21T16:56:08.911Z,100969.81
2017-10-21T16:58:36.597Z,100973.13
2017-10-21T17:01:04.179Z,100971.56
2017-10-21T17:03:31.834Z,100974.83
2017-10-21T17:05:59.437Z,100977.00
2017-10-21T17:08:27.030Z,100973.67
2017-10-21T17:10:54.678Z,100972.80
2017-10-21T17:13:22.274Z,100971.47
2017-10-21T17:15:49.898Z,100970.64
2017-10-21T17:18:17.523Z,100970.16
2017-10-21T17:20:45.104Z,100973.00
2017-10-21T17:23:12.738Z,100964.27
2017-10-21T17:25:40.351Z,100949.92
2017-10-21T17:28:07.977Z,100947.47
2017-10-21T17:30:35.639Z,100960.77
2017-10-21T17:33:03.228Z,100965.81
2017-10-21T17:35:30.864Z,100957.03
2017-10-21T17:37:58.469Z,100969.31
2017-10-21T17:40:26.129Z,100971.64
2017-10-21T17:42:53.717Z,100962.58
2017-10-21T17:45:21.310Z,100958.42
2017-10-21T17:47:48.926Z,100952.55
2017-10-21T17:50:16.549Z,100954.34
2017-10-21T17:52:44.521Z,100953.33
2017-10-21T17:55:12.109Z,100954.06
2017-10-21T17:57:39.882Z,100953.27
2017-10-21T18:00:07.522Z,100952.84
2017-10-21T18:02:35.129Z,100953.13
2017-10-21T18:05:02.770Z,100942.22
2017-10-21T18:07:30.392Z,100945.50
2017-10-21T18:09:58.004Z,100944.42
2017-10-21T18:12:25.633Z,100944.30
2017-10-21T18:14:53.229Z,100943.57
2017-10-21T18:17:20.864Z,100945.86
2017-10-21T18:19:48.469Z,100945.42
2017-10-21T18:22:16.057Z,100945.91
2017-10-21T18:24:43.680Z,100953.35
2017-10-21T18:27:11.285Z,100950.08
2017-10-21T18:29:39.262Z,100946.14
2017-10-21T18:32:06.849Z,100954.23
2017-10-21T18:34:34.441Z,100957.83
2017-10-21T18:37:02.088Z,100958.06
2017-10-21T18:39:29.682Z,100950.50
2017-10-21T18:41:57.310Z,100946.42
2017-10-21T18:44:25.136Z,100949.56
2017-10-21T18:46:52.766Z,100946.74
2017-10-21T18:49:20.396Z,100952.02
2017-10-21T18:51:48.029Z,100942.81
2017-10-21T18:54:15.670Z,100933.77
2017-10-21T18:56:43.276Z,100929.70
2017-10-21T18:59:10.883Z,100935.05
2017-10-21T19:01:38.506Z,100935.27
2017-10-21T19:04:06.098Z,100936.89
2017-10-21T19:06:33.733Z,100928.20
2017-10-21T19:09:01.333Z,100926.03
2017-10-21T19:11:29.153Z,100930.98
2017-10-21T19:13:56.764Z,100940.64
2017-10-21T19:16:24.349Z,100948.77
2017-10-21T19:18:52.315Z,100943.65
2017-10-21T19:21:19.900Z,100944.02
2017-10-21T19:23:47.476Z,100936.61
2017-10-21T19:26:15.104Z,100928.06
2017-10-21T19:28:42.689Z,100919.44
2017-10-21T19:31:10.316Z,100912.03
2017-10-21T19:33:37.919Z,100923.53
2017-10-21T19:36:05.509Z,100918.67
2017-10-21T19:38:33.212Z,100918.84
2017-10-21T19:41:00.807Z,100916.16
2017-10-21T19:43:28.437Z,100913.65
2017-10-21T19:45:56.303Z,100909.72
2017-10-21T19:48:23.889Z,100911.11
2017-10-21T19:50:51.503Z,100905.33
2017-10-21T19:53:19.096Z,100900.19
2017-10-21T19:55:46.759Z,100892.94
2017-10-21T19:58:14.360Z,100886.31
2017-10-21T20:00:42.576Z,100876.87
2017-10-21T20:03:10.196Z,100884.44
2017-10-21T20:05:38.087Z,100891.89
2017-10-21T20:08:05.758Z,100884.26
2017-10-21T20:10:33.346Z,100878.59
2017-10-21T20:13:00.943Z,100874.84
2017-10-21T20:15:28.562Z,100866.04
2017-10-21T20:17:56.429Z,100852.80
2017-10-21T20:20:24.312Z,100844.50
2017-10-21T20:22:51.899Z,100843.13
2017-10-21T20:25:19.725Z,100852.86
2017-10-21T20:27:47.337Z,100838.77
2017-10-21T20:30:14.922Z,100839.47
2017-10-21T20:32:42.555Z,100846.66
2017-10-21T20:35:10.486Z,100850.60
2017-10-21T20:37:38.082Z,100849.84
2017-10-21T20:40:05.731Z,100862.21
2017-10-21T20:42:33.318Z,100873.23
2017-10-21T20:45:00.953Z,100881.25
2017-10-21T20:47:28.542Z,100882.13
2017-10-21T20:49:56.172Z,100879.84
2017-10-21T20:52:24.016Z,100890.38
2017-10-21T20:54:51.599Z,100884.56
2017-10-21T20:57:19.235Z,100875.46
2017-10-21T20:59:47.117Z,100876.62
2017-10-21T21:02:15.085Z,100867.66
2017-10-21T21:04:42.953Z,100862.62
2017-10-21T21:07:10.546Z,100851.61
2017-10-21T21:09:38.169Z,100861.53
2017-10-21T21:12:05.751Z,100855.94
2017-10-21T21:14:33.332Z,100844.41
2017-10-21T21:17:00.948Z,100850.78
2017-10-21T21:19:28.529Z,100855.67
2017-10-21T21:21:56.173Z,100861.07
2017-10-21T21:24:23.764Z,100876.87
2017-10-21T21:26:51.359Z,100876.06
2017-10-21T21:29:18.969Z,100878.83
2017-10-21T21:31:46.559Z,100879.34
2017-10-21T21:34:14.217Z,100881.48
2017-10-21T21:36:42.165Z,100883.01
2017-10-21T21:39:10.036Z,100876.55
2017-10-21T21:41:37.646Z,100877.97
2017-10-21T21:44:05.232Z,100874.05
2017-10-21T21:46:32.844Z,100861.22
2017-10-21T21:49:00.436Z,100864.74
2017-10-21T21:51:28.345Z,100871.02
2017-10-21T21:53:55.965Z,100865.02
2017-10-21T21:56:23.558Z,100857.50
2017-10-21T21:58:51.184Z,100847.37
2017-10-21T22:01:18.776Z,100845.48
2017-10-21T22:03:46.661Z,100849.76
2017-10-21T22:06:14.270Z,100838.36
2017-10-21T22:08:41.854Z,100836.73
2017-10-21T22:11:09.495Z,100842.11
2017-10-21T22:13:37.102Z,100841.54
2017-10-21T22:16:04.700Z,100846.41
2017-10-21T22:18:32.308Z,100844.97
2017-10-21T22:21:00.197Z,100845.38
2017-10-21T22:23:28.124Z,100846.03
2017-10-21T22:25:55.772Z,100842.44
2017-10-21T22:28:23.353Z,100844.47
2017-10-21T22:30:50.969Z,100846.59
2017-10-21T22:33:18.557Z,100845.45
2017-10-21T22:35:46.205Z,100840.51
2017-10-21T22:38:13.842Z,100816.91
2017-10-21T22:40:41.426Z,100819.98
2017-10-21T22:43:09.045Z,100816.91
2017-10-21T22:45:36.936Z,100820.16
2017-10-21T22:48:04.563Z,100821.58
2017-10-21T22:50:32.201Z,100827.19
2017-10-21T22:52:59.782Z,100823.95
2017-10-21T22:55:27.400Z,100820.31
2017-10-21T22:57:56.075Z,100817.54
2017-10-21T23:00:23.714Z,100823.66
2017-10-21T23:02:51.296Z,100833.34
2017-10-21T23:05:18.876Z,100824.81
2017-10-21T23:07:46.496Z,100823.80
2017-10-21T23:10:14.076Z,100817.71
2017-10-21T23:12:41.707Z,100817.66
2017-10-21T23:15:09.297Z,100823.85
2017-10-21T23:17:36.886Z,100818.08
2017-10-21T23:20:04.836Z,100820.10
2017-10-21T23:22:32.440Z,100810.62
2017-10-21T23:25:00.364Z,100808.95
2017-10-21T23:27:27.953Z,100816.17
2017-10-21T23:29:55.895Z,100810.08
2017-10-21T23:32:23.512Z,100810.95
2017-10-21T23:34:51.420Z,100812.16
2017-10-21T23:37:19.064Z,100808.38
2017-10-21T23:39:46.658Z,100816.36
2017-10-21T23:42:14.481Z,100814.88
2017-10-21T23:44:42.108Z,100818.80
2017-10-21T23:47:09.692Z,100817.42
2017-10-21T23:49:37.277Z,100811.45
2017-10-21T23:52:04.897Z,100800.39
2017-10-21T23:54:32.506Z,100797.52
2017-10-21T23:57:00.334Z,100793.88
2017-10-21T23:59:27.957Z,100792.81
